Time;durP1;ratioP1;P1;durP2;ratioP2;P2;SDS_P1;SDS_P2;PMS_P1;PMS_P2;Temp;Humidity;BMP_temperature;BMP_pressure;BME280_temperature;BME280_humidity;BME280_pressure;Samples;Min_cycle;Max_cycle;Signal;HPM_P1;HPM_P2
2022/07/05 00:02:16;;;;;;;5.43;2.42;;;19.50;59.20;;;;;;5013641;28;20018;-69
2022/07/05 00:04:42;;;;;;;5.28;2.53;;;19.40;59.20;;;;;;5013411;28;20471;-69
2022/07/05 00:07:20;;;;;;;3.00;2.03;;;19.40;59.20;;;;;;5013510;28;20026;-69
2022/07/05 00:09:54;;;;;;;4.25;2.30;;;19.40;59.50;;;;;;5013272;28;20033;-69
2022/07/05 00:12:22;;;;;;;5.22;2.50;;;19.40;59.50;;;;;;5013198;28;20030;-69
2022/07/05 00:14:49;;;;;;;2.22;2.00;;;19.40;59.60;;;;;;5011798;28;22928;-69
2022/07/05 00:17:14;;;;;;;4.53;2.45;;;19.40;59.90;;;;;;5010291;28;20040;-69
2022/07/05 00:19:41;;;;;;;2.85;2.05;;;19.40;59.80;;;;;;5012621;28;20049;-69
2022/07/05 00:22:06;;;;;;;6.80;2.00;;;19.40;59.90;;;;;;5012918;28;20025;-69
2022/07/05 00:24:32;;;;;;;5.25;1.98;;;19.40;59.70;;;;;;5012950;28;20030;-69
2022/07/05 00:26:58;;;;;;;3.40;1.98;;;19.40;59.60;;;;;;5012605;28;20022;-66
2022/07/05 00:29:24;;;;;;;4.53;1.90;;;19.40;59.90;;;;;;5011129;28;20120;-68
2022/07/05 00:31:50;;;;;;;5.28;2.10;;;19.40;60.10;;;;;;5012829;28;20026;-68
2022/07/05 00:34:16;;;;;;;6.50;2.92;;;19.40;60.10;;;;;;5011389;28;20494;-68
2022/07/05 00:36:42;;;;;;;4.20;2.13;;;19.40;60.20;;;;;;5012788;28;20365;-68
2022/07/05 00:39:08;;;;;;;3.63;2.15;;;19.30;60.50;;;;;;5012119;28;20366;-68
2022/07/05 00:41:34;;;;;;;2.67;2.08;;;19.40;60.60;;;;;;5013016;28;20101;-69
2022/07/05 00:44:05;;;;;;;2.95;2.05;;;19.30;60.80;;;;;;5013062;28;20105;-68
2022/07/05 00:46:31;;;;;;;10.68;2.30;;;19.30;60.90;;;;;;5011645;28;20117;-68
2022/07/05 00:48:58;;;;;;;2.50;1.92;;;19.30;60.80;;;;;;5010466;28;20057;-68
2022/07/05 00:51:25;;;;;;;3.78;2.53;;;19.30;60.90;;;;;;5010891;28;20083;-68
2022/07/05 00:53:51;;;;;;;2.70;1.83;;;19.30;61.20;;;;;;5011189;28;20125;-69
2022/07/05 00:56:19;;;;;;;7.28;2.60;;;19.20;61.20;;;;;;5012251;28;20458;-68
2022/07/05 00:58:45;;;;;;;5.30;2.92;;;19.20;61.80;;;;;;5011607;28;20388;-68
2022/07/05 01:01:11;;;;;;;4.57;2.50;;;19.10;61.80;;;;;;5011241;28;20037;-68
2022/07/05 01:03:37;;;;;;;6.38;2.85;;;19.20;61.90;;;;;;5012453;28;20025;-68
2022/07/05 01:06:06;;;;;;;5.30;2.33;;;19.00;62.40;;;;;;5012247;28;20061;-68
2022/07/05 01:08:34;;;;;;;4.65;2.60;;;19.00;62.70;;;;;;4994122;28;20018;-68
2022/07/05 01:11:00;;;;;;;5.18;2.78;;;19.00;62.80;;;;;;5010343;28;20018;-68
2022/07/05 01:13:26;;;;;;;12.65;2.63;;;18.90;63.20;;;;;;5011945;28;20079;-68
2022/07/05 01:15:52;;;;;;;3.63;2.38;;;18.70;63.40;;;;;;5011864;28;20468;-68
2022/07/05 01:18:20;;;;;;;6.43;2.70;;;18.60;63.70;;;;;;5010706;28;20025;-68
2022/07/05 01:20:51;;;;;;;8.73;2.90;;;18.60;64.10;;;;;;5012203;28;20052;-68
2022/07/05 01:23:20;;;;;;;4.00;2.80;;;18.50;64.10;;;;;;5011963;28;20025;-68
2022/07/05 01:25:48;;;;;;;7.57;2.38;;;18.50;64.30;;;;;;5012260;28;20026;-69
2022/07/05 01:28:15;;;;;;;5.57;2.90;;;18.50;64.40;;;;;;5010690;28;20029;-68
2022/07/05 01:30:42;;;;;;;4.75;2.75;;;18.40;64.50;;;;;;5010818;28;20030;-68
2022/07/05 01:33:09;;;;;;;6.15;2.70;;;18.40;65.00;;;;;;5011751;28;20164;-67
2022/07/05 01:35:35;;;;;;;3.55;2.40;;;18.40;64.60;;;;;;5010419;28;20038;-68
2022/07/05 01:38:01;;;;;;;3.58;2.47;;;18.50;64.40;;;;;;5010876;28;20034;-69
2022/07/05 01:40:27;;;;;;;3.85;2.80;;;18.40;64.50;;;;;;5011761;28;20036;-68
2022/07/05 01:42:53;;;;;;;7.10;2.75;;;18.30;64.80;;;;;;5010291;28;20476;-69
2022/07/05 01:48:06;;;;;;;2.95;2.65;;;18.20;65.10;;;;;;5012076;28;20040;-69
2022/07/05 01:50:36;;;;;;;5.60;2.75;;;18.20;64.70;;;;;;4995729;28;20021;-69
2022/07/05 01:53:03;;;;;;;4.45;2.60;;;;;;;;;;5011770;28;20026;-68
2022/07/05 01:55:30;;;;;;;5.07;2.60;;;;;;;;;;5012010;28;20036;-69
2022/07/05 01:57:56;;;;;;;2.75;2.22;;;;;;;;;;5011843;28;20022;-68
2022/07/05 02:00:22;;;;;;;3.67;2.30;;;;;;;;;;5011615;28;20080;-68
2022/07/05 02:02:48;;;;;;;5.13;2.08;;;;;;;;;;5011957;28;20101;-68
2022/07/05 02:05:14;;;;;;;3.03;2.28;;;;;;;;;;5011761;28;20467;-68
2022/07/05 02:07:49;;;;;;;3.30;2.17;;;;;;;;;;5011482;28;20026;-69
2022/07/05 02:10:16;;;;;;;2.88;2.22;;;;;;;;;;5010138;28;20026;-68
2022/07/05 02:12:42;;;;;;;7.32;2.30;;;;;;;;;;5011568;28;20022;-68
2022/07/05 02:15:08;;;;;;;3.53;3.00;;;;;;;;;;5011771;28;20033;-69
2022/07/05 02:17:34;;;;;;;7.95;2.78;;;;;;;;;;5011345;28;20037;-69
2022/07/05 02:20:00;;;;;;;3.88;2.78;;;;;;;;;;5011505;28;20018;-68
2022/07/05 02:22:26;;;;;;;5.28;2.58;;;;;;;;;;5010205;28;20029;-68
2022/07/05 02:24:53;;;;;;;4.72;2.63;;;;;;;;;;5011438;28;20026;-68
2022/07/05 02:27:19;;;;;;;7.25;2.75;;;;;;;;;;5011264;28;20041;-68
2022/07/05 02:29:45;;;;;;;5.90;2.65;;;;;;;;;;5011354;28;20026;-68
2022/07/05 02:32:11;;;;;;;3.83;2.92;;;;;;;;;;5011248;28;20026;-69
2022/07/05 02:34:37;;;;;;;5.20;2.60;;;;;;;;;;5014720;28;20025;-69
2022/07/05 02:37:03;;;;;;;4.40;2.67;;;;;;;;;;5015170;28;20022;-69
2022/07/05 02:39:29;;;;;;;5.50;2.65;;;;;;;;;;5015205;28;20084;-70
2022/07/05 02:41:54;;;;;;;6.57;2.95;;;;;;;;;;5015050;28;20029;-69
2022/07/05 02:44:20;;;;;;;4.65;2.92;;;;;;;;;;5015250;28;20034;-69
2022/07/05 02:46:46;;;;;;;3.80;2.63;;;;;;;;;;5015211;28;20030;-70
2022/07/05 02:49:12;;;;;;;3.42;2.25;;;;;;;;;;5014901;28;20030;-69
2022/07/05 02:51:38;;;;;;;3.70;3.05;;;;;;;;;;5015123;28;20373;-69
2022/07/05 02:54:04;;;;;;;2.60;2.20;;;;;;;;;;5014961;28;20032;-69
2022/07/05 02:56:31;;;;;;;3.25;2.47;;;;;;;;;;5014581;28;20423;-68
2022/07/05 02:58:56;;;;;;;3.47;2.20;;;;;;;;;;5014686;28;20361;-68
2022/07/05 03:01:22;;;;;;;2.85;2.42;;;;;;;;;;5013299;28;20021;-69
2022/07/05 03:03:48;;;;;;;8.50;2.67;;;;;;;;;;5014971;28;20439;-69
2022/07/05 03:06:14;;;;;;;4.60;2.67;;;;;;;;;;5014653;28;20030;-69
2022/07/05 03:08:41;;;;;;;3.38;2.50;;;;;;;;;;5014491;28;20635;-69
2022/07/05 03:11:07;;;;;;;3.80;2.95;;;;;;;;;;5013045;28;20044;-69
2022/07/05 03:13:33;;;;;;;17.98;10.25;;;;;;;;;;5014591;28;20105;-69
2022/07/05 03:15:59;;;;;;;52.22;29.67;;;;;;;;;;5014424;28;20033;-69
2022/07/05 03:18:25;;;;;;;4.28;2.90;;;;;;;;;;5014209;28;20025;-69
2022/07/05 03:20:51;;;;;;;21.80;10.82;;;;;;;;;;5014153;28;20050;-69
2022/07/05 03:23:17;;;;;;;8.55;2.90;;;;;;;;;;5014368;28;20117;-69
2022/07/05 03:25:43;;;;;;;8.45;4.35;;;;;;;;;;5014080;28;20022;-69
2022/07/05 03:28:09;;;;;;;12.10;4.60;;;;;;;;;;5013973;28;20121;-69
2022/07/05 03:30:35;;;;;;;4.38;2.65;;;;;;;;;;5014037;28;20033;-69
2022/07/05 03:33:01;;;;;;;6.28;3.05;;;;;;;;;;5012708;28;20472;-69
2022/07/05 03:35:27;;;;;;;4.72;2.55;;;;;;;;;;5014182;28;20036;-69
2022/07/05 03:37:53;;;;;;;4.55;3.03;;;;;;;;;;5013631;28;20069;-69
2022/07/05 03:40:19;;;;;;;5.65;2.70;;;;;;;;;;5013874;28;20022;-69
2022/07/05 03:42:45;;;;;;;16.80;2.67;;;;;;;;;;5014270;28;20357;-69
2022/07/05 03:45:11;;;;;;;3.00;2.70;;;;;;;;;;5012359;28;20021;-69
2022/07/05 03:47:37;;;;;;;5.43;2.30;;;;;;;;;;5013417;28;20030;-67
2022/07/05 03:50:04;;;;;;;3.92;2.22;;;;;;;;;;5013698;28;20034;-68
2022/07/05 03:52:30;;;;;;;6.75;2.70;;;;;;;;;;5013690;28;20026;-68
2022/07/05 03:54:56;;;;;;;2.75;2.22;;;19.70;60.50;;;;;;5013794;28;20049;-68
2022/07/05 03:57:22;;;;;;;5.22;2.00;;;19.80;60.20;;;;;;5013317;28;20475;-69
2022/07/05 03:59:47;;;;;;;2.10;1.90;;;19.80;59.60;;;;;;5013912;28;20400;-69
2022/07/05 04:02:13;;;;;;;4.35;2.65;;;19.80;59.50;;;;;;5013636;28;20025;-69
2022/07/05 04:04:39;;;;;;;2.60;2.00;;;19.80;59.60;;;;;;5014199;28;20065;-69
2022/07/05 04:07:04;;;;;;;4.63;2.42;;;20.00;59.40;;;;;;5013702;28;20026;-69
2022/07/05 04:09:30;;;;;;;6.10;2.35;;;19.70;59.50;;;;;;5014100;28;20094;-69
2022/07/05 04:11:55;;;;;;;6.78;2.15;;;19.60;60.30;;;;;;5019106;28;20038;-70
2022/07/05 04:14:21;;;;;;;6.30;2.45;;;;;;;;;;5012527;28;20084;-69
2022/07/05 04:16:47;;;;;;;7.00;2.05;;;20.80;56.90;;;;;;5014191;28;20052;-70
2022/07/05 04:19:16;;;;;;;3.13;1.98;;;20.90;56.00;;;;;;5013031;28;20022;-70
2022/07/05 04:21:42;;;;;;;3.75;2.20;;;20.90;55.70;;;;;;5014293;28;20037;-69
2022/07/05 04:24:07;;;;;;;4.88;2.30;;;20.70;56.20;;;;;;5013926;28;20026;-69
2022/07/05 04:26:33;;;;;;;5.22;2.58;;;20.50;57.10;;;;;;5012075;28;20519;-68
2022/07/05 04:28:59;;;;;;;5.60;2.92;;;20.30;57.50;;;;;;5013095;28;20444;-68
2022/07/05 04:31:24;;;;;;;7.10;3.60;;;20.30;57.70;;;;;;5012853;28;20492;-69
2022/07/05 04:33:50;;;;;;;6.25;3.95;;;20.20;57.90;;;;;;5013011;28;20161;-70
2022/07/05 04:36:16;;;;;;;7.70;4.07;;;20.30;57.60;;;;;;5012806;28;20056;-69
2022/07/05 04:38:41;;;;;;;8.15;4.72;;;20.60;57.10;;;;;;5012679;28;20072;-69
2022/07/05 04:41:07;;;;;;;11.13;5.45;;;21.20;55.60;;;;;;5012760;28;20030;-69
2022/07/05 04:43:34;;;;;;;9.77;4.72;;;22.10;52.60;;;;;;5013167;28;20029;-70
2022/07/05 04:45:59;;;;;;;9.00;3.90;;;22.70;50.70;;;;;;5013076;28;20042;-69
2022/07/05 04:48:25;;;;;;;8.48;4.50;;;;;;;;;;5012345;28;20045;-69
2022/07/05 04:50:51;;;;;;;8.52;4.85;;;;;;;;;;5012444;28;20021;-68
2022/07/05 04:53:18;;;;;;;11.02;5.38;;;;;;;;;;5012295;28;20504;-69
2022/07/05 04:55:44;;;;;;;6.80;4.63;;;;;;;;;;5012109;28;20022;-69
2022/07/05 04:58:11;;;;;;;10.93;5.82;;;;;;;;;;5011267;28;20114;-69
2022/07/05 05:00:37;;;;;;;10.40;4.95;;;;;;;;;;5012134;28;20038;-70
2022/07/05 05:03:03;;;;;;;8.98;5.38;;;;;;;;;;5012389;28;20076;-70
2022/07/05 05:05:29;;;;;;;14.10;5.78;;;;;;;;;;5012061;28;20042;-70
2022/07/05 05:07:55;;;;;;;11.27;4.88;;;;;;;;;;5011904;28;20396;-69
2022/07/05 05:10:21;;;;;;;14.45;6.28;;;;;;;;;;5011803;28;20037;-68
2022/07/05 05:12:47;;;;;;;12.00;5.82;;;;;;;;;;5012475;28;20101;-70
2022/07/05 05:15:13;;;;;;;10.43;6.30;;;;;;;;;;5012056;28;20018;-70
2022/07/05 05:17:42;;;;;;;14.27;6.35;;;;;;;;;;5011755;28;20068;-70
2022/07/05 05:20:12;;;;;;;16.55;8.13;;;;;;;;;;5011475;28;20033;-69
2022/07/05 05:22:38;;;;;;;16.00;7.72;;;;;;;;;;5011921;28;20066;-69
2022/07/05 05:25:04;;;;;;;12.38;7.63;;;;;;;;;;5011428;28;20480;-67
2022/07/05 05:27:30;;;;;;;15.15;8.30;;;26.00;42.50;;;;;;5009941;28;20097;-69
2022/07/05 05:29:56;;;;;;;10.43;7.18;;;26.60;41.50;;;;;;5007662;28;20153;-69
2022/07/05 05:32:22;;;;;;;8.75;5.35;;;;;;;;;;5010559;28;20476;-70
2022/07/05 05:34:47;;;;;;;11.73;4.18;;;28.50;37.80;;;;;;5009939;28;20018;-70
2022/07/05 05:37:13;;;;;;;9.95;4.18;;;29.10;35.90;;;;;;5011223;28;20522;-69
2022/07/05 05:39:39;;;;;;;5.25;3.03;;;;;;;;;;5010393;28;20030;-70
2022/07/05 05:42:05;;;;;;;6.40;2.65;;;32.40;31.40;;;;;;5011558;28;20496;-68
2022/07/05 05:44:31;;;;;;;5.32;2.70;;;33.20;29.70;;;;;;5011492;28;20084;-70
2022/07/05 05:46:56;;;;;;;3.55;2.33;;;34.50;28.20;;;;;;5011318;28;20026;-70
2022/07/05 05:49:22;;;;;;;5.80;2.17;;;34.40;27.60;;;;;;5011202;28;20028;-69
2022/07/05 05:51:47;;;;;;;6.80;2.17;;;34.40;27.50;;;;;;5011290;28;20018;-70
2022/07/05 05:54:13;;;;;;;4.07;2.15;;;35.20;26.70;;;;;;5009695;28;20293;-70
2022/07/05 05:56:38;;;;;;;4.38;1.73;;;36.30;25.70;;;;;;5010963;28;20026;-69
2022/07/05 05:59:04;;;;;;;7.57;2.10;;;37.00;24.30;;;;;;5010666;28;20049;-70
2022/07/05 06:01:30;;;;;;;5.45;2.88;;;37.60;23.50;;;;;;5011129;28;20081;-69
2022/07/05 06:03:55;;;;;;;7.30;1.90;;;37.20;24.00;;;;;;5009226;28;20404;-70
2022/07/05 06:06:21;;;;;;;4.60;2.40;;;36.60;24.30;;;;;;5009966;28;20117;-70
2022/07/05 06:08:47;;;;;;;7.25;2.50;;;37.00;24.10;;;;;;5010540;28;20033;-70
2022/07/05 06:11:13;;;;;;;3.67;1.75;;;37.50;23.10;;;;;;5010868;28;20088;-70
2022/07/05 06:13:39;;;;;;;4.95;1.88;;;38.40;21.40;;;;;;5011249;28;20421;-70
2022/07/05 06:16:06;;;;;;;6.70;1.92;;;37.70;22.10;;;;;;5010961;28;20079;-69
2022/07/05 06:18:32;;;;;;;3.97;1.33;;;37.30;22.90;;;;;;4994284;28;20135;-69
2022/07/05 06:20:58;;;;;;;6.75;1.58;;;36.50;23.30;;;;;;5009291;28;20069;-70
2022/07/05 06:23:24;;;;;;;6.45;1.88;;;;;;;;;;5010932;28;20100;-70
2022/07/05 06:25:50;;;;;;;9.25;1.80;;;;;;;;;;5011039;28;20029;-69
2022/07/05 06:28:16;;;;;;;10.73;1.90;;;33.30;27.10;;;;;;5010681;28;20034;-69
2022/07/05 06:30:42;;;;;;;3.13;1.60;;;33.20;27.10;;;;;;5011291;28;20472;-69
2022/07/05 06:33:08;;;;;;;7.60;1.85;;;32.10;28.40;;;;;;5010559;28;20042;-69
2022/07/05 06:35:34;;;;;;;5.25;1.40;;;31.90;30.30;;;;;;5010903;28;20030;-69
2022/07/05 06:38:00;;;;;;;2.45;1.40;;;;;;;;;;5009278;28;20038;-70
2022/07/05 06:40:27;;;;;;;4.60;2.13;;;34.80;25.60;;;;;;5011147;28;20018;-67
2022/07/05 06:42:54;;;;;;;8.65;1.58;;;;;;;;;;5010816;28;20041;-70
2022/07/05 06:45:20;;;;;;;1.95;1.20;;;33.70;27.70;;;;;;5010791;28;20092;-68
2022/07/05 06:47:54;;;;;;;2.72;1.42;;;;;;;;;;5010373;28;20427;-70
2022/07/05 06:50:19;;;;;;;2.80;1.23;;;;;;;;;;5010567;28;20029;-71
2022/07/05 06:52:45;;;;;;;6.32;1.23;;;;;;;;;;5010989;28;20022;-74
2022/07/05 06:55:11;;;;;;;6.72;1.48;;;35.90;23.50;;;;;;5009695;28;20492;-76
2022/07/05 06:57:37;;;;;;;5.05;1.13;;;34.70;24.90;;;;;;5009066;28;20022;-76
2022/07/05 07:00:04;;;;;;;4.90;1.40;;;35.00;25.30;;;;;;5010426;28;20021;-72
2022/07/05 07:02:30;;;;;;;6.80;1.60;;;;;;;;;;5010744;28;20021;-74
2022/07/05 07:04:56;;;;;;;5.32;1.65;;;;;;;;;;5010660;28;20022;-75
2022/07/05 07:10:07;;;;;;;4.35;2.65;;;;;;;;;;5010712;28;20539;-74
2022/07/05 07:12:33;;;;;;;7.93;2.90;;;;;;;;;;5010556;28;20104;-76
2022/07/05 07:14:59;;;;;;;3.72;1.42;;;;;;;;;;5010053;28;20472;-75
2022/07/05 07:17:25;;;;;;;5.72;1.58;;;;;;;;;;5009151;28;20413;-77
2022/07/05 07:19:51;;;;;;;4.75;1.33;;;35.40;24.20;;;;;;5010887;28;20076;-74
2022/07/05 07:22:17;;;;;;;4.65;1.20;;;34.70;25.00;;;;;;5012850;28;20025;-74
2022/07/05 07:24:42;;;;;;;244.23;187.43;;;34.70;24.90;;;;;;5012713;28;20101;-70
2022/07/05 07:27:08;;;;;;;53.17;29.38;;;33.90;26.60;;;;;;5012701;28;20105;-74
2022/07/05 07:29:39;;;;;;;7.18;2.30;;;34.20;25.60;;;;;;5013863;28;20017;-67
2022/07/05 07:32:05;;;;;;;;;;;33.10;27.80;;;;;;5013475;28;20526;-66
2022/07/05 07:34:31;;;;;;;6.90;1.63;;;;;;;;;;5010968;28;19909;-69
2022/07/05 07:36:57;;;;;;;9.35;1.65;;;;;;;;;;5012392;28;20396;-69
2022/07/05 07:39:24;;;;;;;6.10;2.55;;;;;;;;;;5013340;28;20396;-70
2022/07/05 07:41:50;;;;;;;5.28;1.83;;;;;;;;;;5025732;28;20038;-70
2022/07/05 07:44:16;;;;;;;4.38;1.40;;;;;;;;;;5013875;28;20096;-70
2022/07/05 07:46:43;;;;;;;7.35;1.25;;;36.20;22.40;;;;;;5013790;28;20030;-69
2022/07/05 07:49:09;;;;;;;4.72;1.17;;;;;;;;;;5013053;28;20044;-69
2022/07/05 07:51:36;;;;;;;5.10;1.38;;;;;;;;;;5013603;28;20069;-70
2022/07/05 07:54:02;;;;;;;4.22;1.63;;;;;;;;;;5013513;28;20038;-70
2022/07/05 07:56:28;;;;;;;5.75;2.22;;;;;;;;;;5012445;28;20088;-69
2022/07/05 07:58:54;;;;;;;11.07;1.90;;;;;;;;;;5012992;28;20392;-70
2022/07/05 08:01:20;;;;;;;7.05;1.63;;;37.00;20.40;;;;;;5013408;28;20018;-71
2022/07/05 08:03:45;;;;;;;11.57;1.50;;;36.00;22.00;;;;;;5012300;28;20033;-67
2022/07/05 08:06:12;;;;;;;4.05;1.63;;;35.20;22.70;;;;;;5013513;28;20101;-68
2022/07/05 08:08:39;;;;;;;3.67;1.70;;;35.10;22.80;;;;;;5012699;28;20026;-69
2022/07/05 08:11:05;;;;;;;1.30;0.73;;;36.40;22.00;;;;;;5012944;28;20030;-69
2022/07/05 08:13:31;;;;;;;3.13;0.80;;;37.00;20.10;;;;;;5013295;28;20043;-69
2022/07/05 08:15:57;;;;;;;3.67;1.10;;;37.50;20.20;;;;;;5013399;28;20108;-69
2022/07/05 08:23:52;;;;;;;3.80;1.20;;;;;;;;;;5012191;28;20025;-69
2022/07/05 08:26:18;;;;;;;3.45;0.95;;;;;;;;;;5013216;28;20022;-69
2022/07/05 08:28:44;;;;;;;2.47;1.25;;;;;;;;;;5012471;28;20022;-69
2022/07/05 08:31:10;;;;;;;5.93;1.88;;;34.00;23.60;;;;;;5013053;28;20038;-70
2022/07/05 08:33:35;;;;;;;2.30;0.80;;;34.50;22.70;;;;;;5013055;28;20033;-69
2022/07/05 08:36:01;;;;;;;3.47;1.05;;;35.60;21.60;;;;;;5011469;28;20049;-70
2022/07/05 08:38:27;;;;;;;2.20;0.77;;;35.70;20.60;;;;;;5012606;28;20108;-69
2022/07/05 08:40:55;;;;;;;3.58;1.15;;;35.00;20.90;;;;;;5012708;28;20021;-67
2022/07/05 08:43:23;;;;;;;3.47;0.88;;;35.80;21.50;;;;;;5012884;28;20025;-69
2022/07/05 08:45:53;;;;;;;3.72;1.10;;;36.40;20.30;;;;;;5012652;28;20117;-67
2022/07/05 08:48:20;;;;;;;3.88;1.10;;;37.20;19.40;;;;;;5003280;28;20440;-69
2022/07/05 08:50:51;;;;;;;2.28;1.30;;;37.60;19.30;;;;;;4992930;28;20037;-70
2022/07/05 08:53:19;;;;;;;3.03;0.90;;;37.90;18.80;;;;;;4992918;28;20023;-69
2022/07/05 08:55:45;;;;;;;5.10;1.00;;;37.50;19.10;;;;;;4992950;28;20149;-67
2022/07/05 08:58:12;;;;;;;2.00;1.20;;;;;;;;;;4990111;28;20065;-69
2022/07/05 09:00:39;;;;;;;1.95;0.90;;;35.60;20.80;;;;;;4992734;28;20546;-69
2022/07/05 09:03:06;;;;;;;2.50;0.80;;;36.10;20.20;;;;;;4991452;28;20511;-69
2022/07/05 09:05:43;;;;;;;2.50;0.80;;;35.00;20.10;;;;;;5005806;28;20476;-69
2022/07/05 09:08:17;;;;;;;2.97;0.90;;;33.20;21.50;;;;;;5011913;28;20447;-69
2022/07/05 09:10:43;;;;;;;4.35;0.88;;;33.70;22.80;;;;;;5012373;28;20425;-70
2022/07/05 09:13:09;;;;;;;2.75;0.80;;;34.90;21.90;;;;;;5012244;28;20018;-70
2022/07/05 09:15:38;;;;;;;3.92;0.68;;;34.90;20.70;;;;;;5012288;28;20124;-68
2022/07/05 09:18:04;;;;;;;2.17;0.90;;;34.40;22.00;;;;;;5011345;28;20029;-69
2022/07/05 09:20:30;;;;;;;0.98;0.80;;;35.20;21.30;;;;;;5012430;28;20018;-69
2022/07/05 09:22:56;;;;;;;4.07;0.90;;;;;;;;;;5012219;28;20080;-70
2022/07/05 09:25:23;;;;;;;5.38;0.85;;;;;;;;;;5012022;28;20105;-70
2022/07/05 09:27:54;;;;;;;1.70;0.90;;;34.90;20.60;;;;;;5011368;28;20036;-69
2022/07/05 09:30:26;;;;;;;4.18;0.90;;;;;;;;;;5012205;28;20036;-70
2022/07/05 09:33:02;;;;;;;5.75;1.20;;;;;;;;;;5012050;28;20100;-69
2022/07/05 09:35:28;;;;;;;4.25;1.60;;;;;;;;;;5011688;28;20049;-69
2022/07/05 09:37:54;;;;;;;2.05;0.88;;;;;;;;;;5011256;28;20022;-69
2022/07/05 09:40:20;;;;;;;3.03;1.20;;;;;;;;;;5010673;28;20045;-69
2022/07/05 09:42:46;;;;;;;3.85;0.80;;;32.50;24.70;;;;;;5011226;28;20480;-70
2022/07/05 09:45:12;;;;;;;4.50;1.10;;;33.70;23.10;;;;;;5010436;28;20026;-70
2022/07/05 09:47:37;;;;;;;3.08;0.95;;;34.30;22.50;;;;;;5011554;28;20647;-69
2022/07/05 09:50:04;;;;;;;1.70;0.50;;;;;;;;;;5011356;28;20026;-69
2022/07/05 09:52:31;;;;;;;1.92;0.60;;;35.50;20.90;;;;;;5011734;28;20018;-70
2022/07/05 09:55:00;;;;;;;3.53;0.80;;;35.40;21.00;;;;;;5011525;28;20599;-69
2022/07/05 09:57:26;;;;;;;1.58;0.70;;;35.60;20.80;;;;;;5008751;28;20038;-69
2022/07/05 10:00:07;;;;;;;3.38;1.00;;;35.50;20.90;;;;;;5011512;28;20076;-69
2022/07/05 10:02:40;;;;;;;7.40;1.33;;;35.40;21.20;;;;;;5010969;28;20022;-68
2022/07/05 10:05:22;;;;;;;5.57;0.98;;;33.50;22.00;;;;;;5010131;28;20018;-69
2022/07/05 10:07:53;;;;;;;1.55;0.80;;;32.40;23.00;;;;;;5009768;28;20152;-69
2022/07/05 10:10:23;;;;;;;2.08;1.58;;;32.60;23.50;;;;;;5011231;28;20614;-68
2022/07/05 10:12:49;;;;;;;1.80;1.03;;;;;;;;;;5048015;23;20058;-71
2022/07/05 10:15:21;;;;;;;2.42;0.75;;;30.00;25.10;;;;;;5011630;28;20283;-71
2022/07/05 10:18:10;;;;;;;6.07;1.95;;;28.90;26.50;;;;;;5011244;28;20377;-69
2022/07/05 10:20:43;;;;;;;5.13;0.77;;;28.80;27.10;;;;;;5008509;28;20018;-73
2022/07/05 10:23:15;;;;;;;6.03;1.05;;;29.50;27.20;;;;;;5011729;28;20030;-75
2022/07/05 10:25:51;;;;;;;1.83;1.02;;;30.30;26.70;;;;;;5009591;28;20116;-76
2022/07/05 10:28:18;;;;;;;3.35;0.70;;;31.10;25.60;;;;;;5009085;28;20029;-73
2022/07/05 10:30:49;;;;;;;1.67;0.68;;;32.00;24.40;;;;;;5011317;28;20033;-74
2022/07/05 10:33:20;;;;;;;1.90;0.60;;;31.30;23.80;;;;;;5010347;28;20037;-74
2022/07/05 10:35:47;;;;;;;1.40;0.80;;;30.90;24.20;;;;;;5008522;28;20041;-73
2022/07/05 10:38:13;;;;;;;2.33;0.70;;;30.00;24.40;;;;;;5010169;28;20025;-73
2022/07/05 10:40:44;;;;;;;2.83;1.05;;;;;;;;;;5011153;28;20049;-74
2022/07/05 10:43:12;;;;;;;4.50;0.80;;;29.50;26.80;;;;;;4997120;28;20057;-68
2022/07/05 10:45:48;;;;;;;4.45;0.90;;;29.70;26.70;;;;;;5010929;28;20026;-72
2022/07/05 10:48:16;;;;;;;3.45;0.95;;;30.10;26.80;;;;;;5010600;28;20048;-69
2022/07/05 10:50:55;;;;;;;3.92;1.13;;;30.30;27.00;;;;;;5010511;28;20030;-71
2022/07/05 10:53:26;;;;;;;3.35;1.00;;;30.30;25.40;;;;;;5010708;28;20391;-72
2022/07/05 10:55:58;;;;;;;2.17;0.73;;;30.50;25.60;;;;;;5002342;28;20022;-71
2022/07/05 10:58:34;;;;;;;2.22;0.80;;;30.60;26.00;;;;;;5012545;28;20033;-69
2022/07/05 11:01:11;;;;;;;1.38;0.57;;;30.60;25.30;;;;;;5012679;28;20169;-71
2022/07/05 11:03:42;;;;;;;3.00;0.70;;;30.80;24.70;;;;;;5014565;28;20026;-71
2022/07/05 11:06:18;;;;;;;7.35;0.73;;;30.90;25.10;;;;;;5014586;28;20029;-71
2022/07/05 11:08:58;;;;;;;3.90;1.00;;;30.40;24.90;;;;;;5013804;28;20029;-69
2022/07/05 11:11:35;;;;;;;2.10;0.70;;;29.50;27.10;;;;;;5013075;28;20022;-74
2022/07/05 11:14:20;;;;;;;5.45;1.00;;;29.50;27.40;;;;;;5014562;28;20034;-77
2022/07/05 11:17:16;;;;;;;8.35;0.70;;;29.80;27.70;;;;;;5015043;28;20034;-77
2022/07/05 11:20:01;;;;;;;3.08;0.70;;;30.00;26.50;;;;;;5016037;28;20018;-77
2022/07/05 11:22:26;;;;;;;2.95;0.98;;;30.20;26.80;;;;;;5011942;28;20113;-71
2022/07/05 11:24:53;;;;;;;3.15;0.77;;;30.40;26.50;;;;;;5013685;28;20101;-69
2022/07/05 11:27:18;;;;;;;2.35;0.60;;;30.50;26.10;;;;;;5013377;28;20156;-70
2022/07/05 11:29:48;;;;;;;2.33;0.85;;;30.40;25.70;;;;;;5013704;28;20480;-70
2022/07/05 11:32:36;;;;;;;4.00;1.10;;;30.30;26.40;;;;;;5013865;28;20018;-69
2022/07/05 11:35:16;;;;;;;2.08;0.80;;;30.10;26.20;;;;;;5012413;28;20281;-69
2022/07/05 11:37:58;;;;;;;2.03;0.70;;;29.70;26.70;;;;;;5012894;28;20068;-69
2022/07/05 11:40:28;;;;;;;5.05;1.05;;;29.80;27.60;;;;;;5013649;28;20084;-67
2022/07/05 11:42:53;;;;;;;3.45;1.10;;;29.90;26.90;;;;;;5011859;28;20409;-69
2022/07/05 11:45:19;;;;;;;2.83;0.88;;;29.90;26.80;;;;;;5013661;28;20025;-67
2022/07/05 11:47:45;;;;;;;5.47;1.25;;;30.00;26.40;;;;;;5012696;28;20026;-68
2022/07/05 11:50:12;;;;;;;5.00;1.10;;;29.60;26.20;;;;;;5013673;28;20029;-68
2022/07/05 11:52:39;;;;;;;5.78;1.02;;;29.40;26.20;;;;;;5013240;28;20157;-68
2022/07/05 11:55:10;;;;;;;5.25;1.00;;;28.70;27.00;;;;;;5013351;28;20116;-68
2022/07/05 11:57:36;;;;;;;12.60;4.75;;;28.50;28.10;;;;;;5012213;28;20041;-68
2022/07/05 12:00:03;;;;;;;2.05;1.17;;;28.40;27.40;;;;;;5013302;28;20109;-67
2022/07/05 12:02:29;;;;;;;2.50;0.70;;;28.60;28.70;;;;;;5013091;28;20032;-67
2022/07/05 12:04:56;;;;;;;3.72;0.75;;;29.10;28.50;;;;;;5013200;28;20440;-68
2022/07/05 12:07:29;;;;;;;3.47;0.82;;;29.30;27.20;;;;;;5010711;28;20484;-68
2022/07/05 12:12:42;;;;;;;3.30;0.85;;;29.50;27.10;;;;;;5013156;28;20048;-69
2022/07/05 12:15:12;;;;;;;5.63;0.95;;;29.60;27.00;;;;;;4992520;28;20026;-71
2022/07/05 12:17:40;;;;;;;3.45;0.70;;;29.50;25.40;;;;;;5000252;28;20034;-72
2022/07/05 12:20:07;;;;;;;3.58;0.65;;;29.10;27.00;;;;;;5013019;28;20026;-71
2022/07/05 12:22:39;;;;;;;2.40;0.80;;;29.20;27.00;;;;;;5009936;28;20366;-71
2022/07/05 12:25:07;;;;;;;2.35;0.70;;;29.30;26.90;;;;;;5011429;28;20575;-72
2022/07/05 12:27:36;;;;;;;3.85;0.77;;;29.50;25.80;;;;;;5012151;28;20089;-74
2022/07/05 12:30:03;;;;;;;3.40;0.75;;;29.60;26.00;;;;;;5013494;28;20082;-73
2022/07/05 12:32:30;;;;;;;3.45;0.65;;;29.70;26.90;;;;;;5013189;28;20218;-73
2022/07/05 12:34:56;;;;;;;4.03;0.80;;;29.60;26.50;;;;;;5013514;28;20368;-75
2022/07/05 12:37:24;;;;;;;2.45;1.13;;;29.50;27.10;;;;;;5013151;28;20434;-73
2022/07/05 12:40:01;;;;;;;13.00;1.02;;;29.50;25.90;;;;;;5022363;28;20037;-72
2022/07/05 12:42:35;;;;;;;5.85;0.90;;;29.50;26.70;;;;;;5028792;28;20089;-71
2022/07/05 12:45:13;;;;;;;3.00;0.90;;;29.60;26.00;;;;;;5026927;28;20022;-71
2022/07/05 12:47:56;;;;;;;3.40;0.85;;;29.50;26.00;;;;;;5024245;28;20040;-72
2022/07/05 12:50:29;;;;;;;1.52;0.57;;;29.60;26.20;;;;;;5024120;28;20037;-73
2022/07/05 12:58:01;;;;;;;1.77;0.82;;;29.70;26.50;;;;;;5025386;28;20095;-72
2022/07/05 12:58:29;;;;;;;3.38;1.10;;;29.20;26.30;;;;;;5017349;28;20120;-73
2022/07/05 13:00:54;;;;;;;1.70;0.80;;;28.50;27.40;;;;;;5013036;28;20089;-69
2022/07/05 13:03:20;;;;;;;2.65;1.10;;;28.40;28.60;;;;;;5010531;28;20542;-69
2022/07/05 13:06:01;;;;;;;3.95;0.80;;;28.30;29.50;;;;;;5012466;28;20041;-69
2022/07/05 13:08:28;;;;;;;4.95;0.70;;;28.60;27.10;;;;;;5011714;28;20014;-69
2022/07/05 13:10:54;;;;;;;5.05;1.13;;;28.90;27.80;;;;;;5012178;28;20108;-70
2022/07/05 13:13:20;;;;;;;1.95;0.77;;;29.00;28.60;;;;;;5011078;28;20114;-68
2022/07/05 13:15:45;;;;;;;6.35;0.95;;;29.20;29.00;;;;;;5012001;28;20022;-70
2022/07/05 13:18:11;;;;;;;1.63;0.57;;;29.40;27.70;;;;;;5010417;28;20025;-69
2022/07/05 13:20:37;;;;;;;8.45;0.93;;;29.50;28.20;;;;;;5010382;28;20022;-69
2022/07/05 13:23:02;;;;;;;6.60;1.40;;;29.50;26.10;;;;;;5010260;28;20032;-68
2022/07/05 13:25:28;;;;;;;2.10;0.88;;;29.50;27.20;;;;;;5012017;28;20092;-68
2022/07/05 13:27:55;;;;;;;3.42;0.80;;;29.40;26.50;;;;;;5011180;28;20488;-68
2022/07/05 13:30:21;;;;;;;2.42;1.02;;;29.20;27.50;;;;;;5011617;28;20377;-67
2022/07/05 13:32:47;;;;;;;9.38;1.20;;;28.70;26.70;;;;;;5011278;28;20088;-67
2022/07/05 13:35:12;;;;;;;7.13;1.30;;;28.50;27.10;;;;;;5011628;28;20464;-69
2022/07/05 13:37:38;;;;;;;4.63;1.00;;;28.30;29.30;;;;;;5011129;28;20030;-68
2022/07/05 13:40:04;;;;;;;2.83;0.95;;;28.40;28.70;;;;;;5011238;28;20104;-68